Time;durP1;ratioP1;P1;durP2;ratioP2;P2;SDS_P1;SDS_P2;PMS_P1;PMS_P2;Temp;Humidity;BMP_temperature;BMP_pressure;BME280_temperature;BME280_humidity;BME280_pressure;Samples;Min_cycle;Max_cycle;Signal;HPM_P1;HPM_P2
2022/09/20 00:01:21;;;;;;;10.57;3.38;;;;;;;10.22;100.00;102091.09;5071942;28;20375;-54
2022/09/20 00:03:53;;;;;;;9.85;2.65;;;;;;;10.27;100.00;102094.38;5072398;28;20052;-56
2022/09/20 00:06:24;;;;;;;10.77;3.00;;;;;;;10.23;100.00;102096.28;5070941;28;20098;-54
2022/09/20 00:08:56;;;;;;;10.95;3.10;;;;;;;10.27;100.00;102097.84;5072631;28;20045;-54
2022/09/20 00:11:27;;;;;;;13.65;3.25;;;;;;;10.21;100.00;102094.63;5071928;28;20041;-55
2022/09/20 00:13:57;;;;;;;13.23;3.47;;;;;;;10.27;100.00;102095.22;5072757;28;20102;-53
2022/09/20 00:16:27;;;;;;;11.32;4.55;;;;;;;10.23;100.00;102091.03;5071672;28;20380;-53
2022/09/20 00:18:58;;;;;;;17.10;6.40;;;;;;;10.28;100.00;102099.56;5072672;28;20052;-54
2022/09/20 00:21:28;;;;;;;21.98;11.20;;;;;;;10.25;100.00;102098.84;5070998;28;20064;-54
2022/09/20 00:23:57;;;;;;;23.90;13.35;;;;;;;10.25;100.00;102099.72;5072590;28;20049;-53
2022/09/20 00:26:26;;;;;;;35.08;17.50;;;;;;;10.28;100.00;102096.94;5071754;28;20044;-52
2022/09/20 00:28:55;;;;;;;30.92;19.05;;;;;;;10.21;100.00;102094.63;5070842;28;20545;-51
2022/09/20 00:31:23;;;;;;;35.10;21.67;;;;;;;10.14;100.00;102097.53;5071253;28;20079;-53
2022/09/20 00:36:41;;;;;;;37.28;19.88;;;;;;;10.06;100.00;102088.25;5070709;28;20044;-53
2022/09/20 00:39:11;;;;;;;30.73;13.05;;;;;;;10.08;100.00;102094.31;5070843;28;20060;-53
2022/09/20 00:41:39;;;;;;;25.63;13.40;;;;;;;10.06;100.00;102096.16;5072203;28;20052;-55
2022/09/20 00:44:40;;;;;;;23.77;12.40;;;;;;;10.17;100.00;102091.31;5071741;28;20442;-53
2022/09/20 00:47:14;;;;;;;19.75;9.77;;;;;;;10.15;100.00;102096.59;5071754;28;20110;-52
2022/09/20 00:49:42;;;;;;;19.77;7.07;;;;;;;10.11;100.00;102094.19;5070290;28;20102;-53
2022/09/20 00:52:12;;;;;;;14.80;5.90;;;;;;;10.10;100.00;102095.09;5070853;28;20046;-55
2022/09/20 00:54:40;;;;;;;13.43;5.50;;;;;;;10.09;100.00;102093.38;5071141;28;20049;-53
2022/09/20 00:57:08;;;;;;;14.00;4.05;;;;;;;10.04;100.00;102096.22;5071730;28;20048;-54
2022/09/20 00:59:39;;;;;;;12.43;4.53;;;;;;;9.99;100.00;102090.31;5071290;28;20794;-53
2022/09/20 01:02:12;;;;;;;14.80;3.72;;;;;;;10.08;100.00;102086.44;5071171;28;20448;-53
2022/09/20 01:04:42;;;;;;;10.90;2.78;;;;;;;10.10;100.00;102093.34;5071141;28;20051;-54
2022/09/20 01:07:14;;;;;;;11.20;3.50;;;;;;;10.09;100.00;102094.25;5070883;28;20052;-52
2022/09/20 01:09:43;;;;;;;14.57;2.90;;;;;;;10.09;100.00;102088.13;5071121;28;20052;-52
2022/09/20 01:16:07;;;;;;;9.40;3.22;;;;;;;10.07;100.00;102082.09;5029278;22;20145;-53
2022/09/20 01:18:38;;;;;;;10.98;2.75;;;;;;;10.11;100.00;102086.31;5029131;28;20046;-54
2022/09/20 01:21:08;;;;;;;13.57;2.97;;;;;;;10.23;100.00;102080.50;5030648;28;20530;-54
2022/09/20 01:23:52;;;;;;;11.90;2.78;;;;;;;10.32;100.00;102082.72;5030877;28;20567;-52
2022/09/20 01:26:55;;;;;;;9.52;2.75;;;;;;;10.40;100.00;102082.44;5030584;28;20373;-54
2022/09/20 01:29:38;;;;;;;9.27;2.53;;;;;;;10.40;100.00;102081.56;5030968;28;20054;-55
2022/09/20 01:32:13;;;;;;;9.57;2.80;;;;;;;10.44;100.00;102093.66;5029390;28;20049;-53
2022/09/20 01:34:46;;;;;;;8.98;2.45;;;;;;;10.39;100.00;102091.25;5030984;28;20092;-55
2022/09/20 01:37:22;;;;;;;8.25;2.40;;;;;;;10.43;100.00;102095.44;5031107;28;20523;-51
2022/09/20 01:40:02;;;;;;;7.95;2.10;;;;;;;10.37;100.00;102086.97;5031068;28;20045;-50
2022/09/20 01:42:34;;;;;;;7.85;1.88;;;;;;;10.41;100.00;102091.16;5013050;28;20045;-54
2022/09/20 01:45:15;;;;;;;11.15;2.10;;;;;;;10.35;100.00;102088.78;5031424;28;20484;-54
2022/09/20 01:47:52;;;;;;;8.38;1.73;;;;;;;10.38;100.00;102088.69;5014099;28;20051;-54
2022/09/20 01:50:29;;;;;;;10.38;2.35;;;;;;;10.41;100.00;102088.53;5030487;28;20041;-54
2022/09/20 01:53:33;;;;;;;12.30;1.95;;;;;;;10.40;100.00;102084.19;5030869;28;20041;-54
2022/09/20 01:56:48;;;;;;;8.23;2.05;;;;;;;10.46;100.00;102089.19;5030299;28;20440;-54
2022/09/20 01:59:45;;;;;;;8.13;2.05;;;;;;;10.44;100.00;102091.91;5000002;28;20115;-52
2022/09/20 02:02:39;;;;;;;8.15;2.08;;;;;;;10.38;100.00;102089.53;5026484;28;20049;-53
2022/09/20 02:05:17;;;;;;;11.50;2.88;;;;;;;10.38;100.00;102088.69;5030710;28;20047;-54
2022/09/20 02:08:15;;;;;;;6.72;1.88;;;;;;;10.35;100.00;102089.66;5030368;28;20072;-54
2022/09/20 02:11:11;;;;;;;7.72;2.05;;;;;;;10.42;100.00;102090.25;5030458;28;20481;-52
2022/09/20 02:14:02;;;;;;;7.72;1.98;;;;;;;10.38;100.00;102078.16;5029966;28;20099;-54
2022/09/20 02:16:43;;;;;;;10.48;2.40;;;;;;;10.40;100.00;102085.06;5025792;28;20081;-54
2022/09/20 02:19:56;;;;;;;9.60;2.33;;;;;;;10.47;100.00;102089.13;5030551;28;20457;-54
2022/09/20 02:22:41;;;;;;;3.97;1.58;;;;;;;10.47;100.00;102089.13;5019264;28;20057;-55
2022/09/20 02:25:29;;;;;;;9.90;2.00;;;;;;;10.43;100.00;102092.81;5030646;28;20072;-53
2022/09/20 02:28:13;;;;;;;7.65;1.90;;;;;;;10.39;100.00;102088.59;5029831;28;20045;-54
2022/09/20 02:30:50;;;;;;;7.53;1.83;;;;;;;10.43;100.00;102091.94;5029889;28;20495;-53
2022/09/20 02:33:52;;;;;;;8.52;1.88;;;;;;;10.43;100.00;102091.94;5028863;28;20492;-54
2022/09/20 02:36:39;;;;;;;8.18;1.63;;;;;;;10.46;100.00;102091.81;5029903;28;20128;-51
2022/09/20 02:39:15;;;;;;;8.18;1.83;;;;;;;10.48;100.00;102089.97;5030185;28;20090;-54
2022/09/20 02:41:57;;;;;;;9.05;1.85;;;;;;;10.51;100.00;102091.59;5028764;28;20099;-52
2022/09/20 02:44:46;;;;;;;10.95;2.00;;;;;;;10.53;100.00;102082.72;5030077;28;20067;-52
2022/09/20 02:47:23;;;;;;;8.00;1.77;;;;;;;10.53;100.00;102087.97;5028829;28;20107;-51
2022/09/20 02:50:06;;;;;;;7.93;2.35;;;;;;;10.47;100.00;102085.63;5029991;28;20053;-54
2022/09/20 02:52:40;;;;;;;10.05;2.00;;;;;;;10.48;100.00;102085.56;5029450;28;20103;-52
2022/09/20 02:55:17;;;;;;;8.27;2.20;;;;;;;10.52;100.00;102091.53;5030103;28;20511;-52
2022/09/20 02:57:54;;;;;;;8.15;1.88;;;;;;;10.49;100.00;102089.03;5029614;28;20084;-52
2022/09/20 03:00:25;;;;;;;6.13;1.70;;;;;;;10.50;100.00;102090.75;5029867;28;20049;-52
2022/09/20 03:03:08;;;;;;;9.73;2.50;;;;;;;10.51;100.00;102088.97;5030555;28;20099;-53
2022/09/20 03:05:47;;;;;;;10.52;2.08;;;;;;;10.58;100.00;102093.03;5033224;28;20615;-52
2022/09/20 03:08:28;;;;;;;9.07;2.03;;;;;;;10.62;100.00;102084.06;5034053;28;20053;-53
2022/09/20 03:11:09;;;;;;;8.45;2.15;;;;;;;10.65;100.00;102087.41;5015857;28;20099;-54
2022/09/20 03:13:55;;;;;;;5.05;1.63;;;;;;;10.62;100.00;102089.31;5033337;28;20049;-52
2022/09/20 03:16:34;;;;;;;7.32;1.90;;;;;;;10.60;100.00;102086.78;5032282;28;20049;-53
2022/09/20 03:19:15;;;;;;;8.90;1.95;;;;;;;10.62;100.00;102079.69;5033444;28;20050;-54
2022/09/20 03:21:54;;;;;;;10.23;2.00;;;;;;;10.68;100.00;102088.22;5033235;28;20053;-52
2022/09/20 03:24:36;;;;;;;7.60;1.92;;;;;;;10.68;100.00;102080.31;5033575;28;20057;-54
2022/09/20 03:27:15;;;;;;;5.80;1.70;;;;;;;10.67;100.00;102083.88;5015430;28;20061;-55
2022/09/20 03:29:58;;;;;;;6.03;1.70;;;;;;;10.68;100.00;102086.44;5033144;28;20378;-54
2022/09/20 03:32:36;;;;;;;;;;;;;;;10.72;100.00;102087.16;5031858;28;20497;-53
2022/09/20 03:35:22;;;;;;;9.57;2.17;;;;;;;10.71;100.00;102088.91;5032580;28;20039;-53
2022/09/20 03:38:03;;;;;;;6.03;1.90;;;;;;;10.63;100.00;102089.28;5033157;28;20057;-52
2022/09/20 03:41:02;;;;;;;10.18;2.30;;;;;;;10.63;100.00;102091.03;5014938;28;20049;-54
2022/09/20 03:43:52;;;;;;;9.13;2.67;;;;;;;10.62;100.00;102091.97;5032509;28;20049;-53
2022/09/20 03:46:26;;;;;;;8.70;1.95;;;;;;;10.64;100.00;102095.38;5014402;28;20451;-52
2022/09/20 03:49:36;;;;;;;9.13;2.63;;;;;;;10.63;100.00;102094.53;5033091;28;20497;-53
2022/09/20 03:52:21;;;;;;;8.50;2.25;;;;;;;10.68;100.00;102098.75;4968829;28;20057;-52
2022/09/20 03:55:52;;;;;;;9.73;2.60;;;;;;;10.58;100.00;102096.53;5015173;28;20049;-52
2022/09/20 03:58:40;;;;;;;11.20;2.45;;;;;;;10.56;100.00;102101.00;4971157;28;20051;-53
2022/09/20 04:01:32;;;;;;;11.65;2.55;;;;;;;10.56;100.00;102098.34;5032389;28;20111;-53
2022/09/20 04:04:11;;;;;;;9.68;2.50;;;;;;;10.55;100.00;102099.31;5014639;28;20042;-52
2022/09/20 04:07:01;;;;;;;7.35;2.28;;;;;;;10.61;100.00;102093.75;5032500;28;20056;-53
2022/09/20 04:09:47;;;;;;;11.00;2.70;;;;;;;10.65;100.00;102097.94;5032311;28;20053;-52
2022/09/20 04:12:25;;;;;;;7.88;2.97;;;;;;;10.59;100.00;102098.25;5032030;28;20041;-53
2022/09/20 04:15:17;;;;;;;6.55;2.25;;;;;;;10.50;100.00;102098.66;5031497;28;20057;-54
2022/09/20 04:17:56;;;;;;;10.38;2.78;;;;;;;10.58;100.00;102093.91;5031171;28;20049;-54
2022/09/20 04:20:34;;;;;;;8.80;2.30;;;;;;;10.53;100.00;102095.88;5032189;28;20046;-53
2022/09/20 04:23:14;;;;;;;8.45;2.55;;;;;;;10.54;100.00;102089.69;5032371;28;20041;-54
2022/09/20 04:25:47;;;;;;;6.45;2.30;;;;;;;10.58;100.00;102096.53;5032173;28;20049;-54
2022/09/20 04:28:22;;;;;;;7.35;2.85;;;;;;;10.55;100.00;102101.94;5032166;28;20443;-52
2022/09/20 04:30:56;;;;;;;5.72;2.45;;;;;;;10.54;100.00;102091.47;5032413;28;20057;-54
2022/09/20 04:33:30;;;;;;;9.80;2.47;;;;;;;10.50;100.00;102096.03;5030277;28;20060;-54
2022/09/20 04:36:30;;;;;;;8.45;2.30;;;;;;;10.48;100.00;102105.75;5032366;28;20060;-54
2022/09/20 04:39:08;;;;;;;9.18;2.53;;;;;;;10.45;100.00;102100.63;5014683;28;20557;-54
2022/09/20 04:42:14;;;;;;;8.55;2.60;;;;;;;10.44;100.00;102101.53;5030840;28;20056;-52
2022/09/20 04:45:20;;;;;;;7.50;2.20;;;;;;;10.41;100.00;102109.56;5031676;28;20061;-52
2022/09/20 04:48:18;;;;;;;7.35;2.30;;;;;;;10.32;100.00;102103.75;5028947;28;20415;-50
2022/09/20 04:51:19;;;;;;;7.93;2.20;;;;;;;10.29;100.00;102108.28;5024271;28;20504;-52
2022/09/20 04:54:06;;;;;;;11.75;2.40;;;;;;;10.25;100.00;102106.72;5032055;28;20502;-53
2022/09/20 04:56:51;;;;;;;7.82;2.42;;;;;;;10.21;100.00;102110.41;5031316;28;20087;-52
2022/09/20 04:59:38;;;;;;;9.98;2.42;;;;;;;10.27;100.00;102112.78;5031703;28;20104;-53
2022/09/20 05:02:41;;;;;;;9.70;2.70;;;;;;;10.21;100.00;102111.28;5030369;28;20056;-51
2022/09/20 05:05:39;;;;;;;7.97;2.58;;;;;;;10.12;100.00;102125.66;5031402;28;20045;-52
2022/09/20 05:08:45;;;;;;;12.23;2.95;;;;;;;10.12;100.00;102117.78;5031477;28;20037;-54
2022/09/20 05:11:36;;;;;;;;;;;;;;;10.15;100.00;102125.53;5031467;28;20076;-53
2022/09/20 05:14:47;;;;;;;7.75;2.72;;;;;;;10.17;100.00;102133.38;5031126;28;19921;-53
2022/09/20 05:17:33;;;;;;;10.25;2.88;;;;;;;10.13;100.00;102132.63;5014110;28;20393;-53
2022/09/20 05:20:21;;;;;;;9.75;3.15;;;;;;;10.21;100.00;102118.28;5030822;28;20534;-50
2022/09/20 05:23:11;;;;;;;8.52;3.10;;;;;;;10.21;100.00;102124.44;5031040;28;20114;-54
2022/09/20 05:25:58;;;;;;;8.18;2.90;;;;;;;10.21;100.00;102113.91;5030903;28;20049;-55
2022/09/20 05:28:34;;;;;;;10.52;3.00;;;;;;;10.21;100.00;102131.44;5027779;28;20088;-50
2022/09/20 05:31:09;;;;;;;9.60;3.13;;;;;;;10.23;100.00;102130.47;5012962;28;20061;-53
2022/09/20 05:33:47;;;;;;;11.07;2.83;;;;;;;10.22;100.00;102127.91;5028710;28;20400;-51
2022/09/20 05:36:24;;;;;;;12.23;2.75;;;;;;;10.27;100.00;102128.56;5013127;28;20508;-51
2022/09/20 05:39:00;;;;;;;6.95;2.75;;;;;;;10.26;100.00;102132.94;5031226;28;20046;-51
2022/09/20 05:41:41;;;;;;;8.20;2.90;;;;;;;10.31;100.00;102130.97;5030049;28;20124;-54
2022/09/20 05:44:24;;;;;;;10.70;2.78;;;;;;;10.36;100.00;102132.59;5030752;28;20073;-54
2022/09/20 05:46:57;;;;;;;;;;;;;;;10.37;100.00;102129.88;5029447;28;20077;-53
2022/09/20 05:49:39;;;;;;;6.63;2.17;;;;;;;10.40;100.00;102136.78;5030184;28;19971;-53
2022/09/20 05:52:25;;;;;;;5.72;2.15;;;;;;;10.42;100.00;102130.53;5031069;28;20558;-52
2022/09/20 05:55:25;;;;;;;6.90;2.50;;;;;;;10.53;100.00;102140.59;5030936;28;20041;-54
2022/09/20 05:58:16;;;;;;;11.77;2.60;;;;;;;10.55;100.00;102141.41;5030430;28;20492;-56
2022/09/20 06:00:51;;;;;;;8.07;2.38;;;;;;;10.60;100.00;102146.44;5030655;28;20140;-51
2022/09/20 06:03:32;;;;;;;12.50;3.03;;;;;;;10.57;100.00;102138.69;5028636;28;20076;-50
2022/09/20 06:06:08;;;;;;;7.93;2.30;;;;;;;10.57;100.00;102136.91;5030253;28;20443;-52
2022/09/20 06:08:51;;;;;;;8.55;2.53;;;;;;;10.52;100.00;102143.28;5030318;28;20068;-50
2022/09/20 06:11:43;;;;;;;9.98;2.47;;;;;;;10.53;100.00;102140.59;5029857;28;20107;-49
2022/09/20 06:14:30;;;;;;;7.97;2.50;;;;;;;10.50;100.00;102143.38;5030279;28;20099;-50
2022/09/20 06:17:10;;;;;;;7.97;2.72;;;;;;;10.52;100.00;102144.13;5028977;28;20496;-54
2022/09/20 06:19:44;;;;;;;9.35;2.47;;;;;;;10.56;100.00;102150.97;5029668;28;20107;-53
2022/09/20 06:22:19;;;;;;;7.03;2.58;;;;;;;10.57;100.00;102150.06;5030615;28;20500;-51
2022/09/20 06:24:56;;;;;;;6.40;2.60;;;;;;;10.61;100.00;102154.25;5030180;28;20111;-52
2022/09/20 06:27:31;;;;;;;9.55;2.63;;;;;;;10.73;100.00;102162.50;5029685;28;20049;-50
2022/09/20 06:30:04;;;;;;;7.95;2.90;;;;;;;10.68;100.00;102161.88;5030370;28;20060;-51
2022/09/20 06:32:33;;;;;;;11.63;3.42;;;;;;;10.67;100.00;102166.28;5028159;28;20057;-53
2022/09/20 06:35:02;;;;;;;10.40;3.10;;;;;;;10.63;100.00;102165.59;5011841;28;20053;-52
2022/09/20 06:43:30;;;;;;;8.57;3.05;;;;;;;10.75;100.00;102169.41;4968364;28;20082;-55
2022/09/20 06:45:58;;;;;;;11.07;3.90;;;;;;;10.83;100.00;102169.94;5009438;28;20132;-54
2022/09/20 06:48:30;;;;;;;13.02;4.20;;;;;;;10.92;100.00;102171.31;5031795;28;20131;-53
2022/09/20 06:50:59;;;;;;;10.40;4.67;;;;;;;11.02;100.00;102173.53;5033979;28;20052;-51
2022/09/20 06:53:29;;;;;;;10.55;4.25;;;;;;;11.05;100.00;102176.00;5033652;28;20484;-50
2022/09/20 06:55:58;;;;;;;11.38;3.53;;;;;;;11.05;100.00;102171.59;5033915;28;20115;-52
2022/09/20 06:58:27;;;;;;;9.00;3.03;;;;;;;11.11;100.00;102178.34;5033454;28;20160;-53
2022/09/20 07:00:56;;;;;;;9.05;3.10;;;;;;;11.14;100.00;102184.34;5034074;28;20467;-54
2022/09/20 07:03:24;;;;;;;8.45;2.88;;;;;;;11.20;100.00;102184.97;5031643;28;20084;-53
2022/09/20 07:05:53;;;;;;;9.07;3.13;;;;;;;11.28;100.00;102181.03;5033857;28;20066;-53
2022/09/20 07:08:21;;;;;;;6.50;2.38;;;;;;;11.40;100.00;102189.28;5033582;28;20057;-54
2022/09/20 07:10:49;;;;;;;11.70;3.53;;;;;;;11.44;100.00;102185.63;5033676;28;20467;-52
2022/09/20 07:13:18;;;;;;;10.93;3.63;;;;;;;11.49;100.00;102204.66;5033226;28;20049;-53
2022/09/20 07:15:46;;;;;;;9.50;2.90;;;;;;;11.50;100.00;102216.91;5033433;28;20140;-48
2022/09/20 07:18:16;;;;;;;6.88;2.17;;;;;;;11.34;100.00;102211.50;5031860;28;20049;-52
2022/09/20 07:20:44;;;;;;;7.43;1.90;;;;;;;11.25;100.00;102218.06;5015511;28;20488;-48
2022/09/20 07:23:14;;;;;;;6.50;1.67;;;;;;;11.10;100.00;102213.50;5033622;28;20099;-47
2022/09/20 07:25:42;;;;;;;5.43;1.75;;;;;;;11.04;100.00;102211.16;5033543;28;20050;-53
2022/09/20 07:28:10;;;;;;;4.78;1.30;;;;;;;11.01;100.00;102203.41;5015196;28;20041;-49
2022/09/20 07:30:38;;;;;;;7.32;1.40;;;;;;;11.01;100.00;102204.25;5033115;28;20095;-47
2022/09/20 07:33:10;;;;;;;4.78;1.38;;;;;;;11.06;100.00;102197.00;5031023;28;20144;-49
2022/09/20 07:35:40;;;;;;;4.78;1.30;;;;;;;11.16;100.00;102186.88;5032461;28;20056;-52
2022/09/20 07:38:09;;;;;;;3.80;1.30;;;;;;;11.22;100.00;102185.75;5033081;28;20455;-48
2022/09/20 07:40:37;;;;;;;8.25;1.45;;;;;;;11.37;100.00;102189.44;5032888;28;20060;-50
2022/09/20 07:43:05;;;;;;;5.15;1.40;;;;;;;11.44;100.00;102186.47;5032381;28;20510;-49
2022/09/20 07:45:34;;;;;;;5.00;1.42;;;;;;;11.52;100.00;102194.00;5014622;28;20077;-50
2022/09/20 07:48:04;;;;;;;5.53;1.20;;;;;;;11.59;100.00;102202.44;5030754;28;20053;-50
2022/09/20 07:50:32;;;;;;;4.72;1.30;;;;;;;11.66;100.00;102206.50;5032524;28;20512;-51
2022/09/20 07:53:03;;;;;;;6.90;1.65;;;;;;;11.69;100.00;102206.34;5033107;28;20056;-51
2022/09/20 07:55:33;;;;;;;7.68;2.30;;;;;;;11.79;100.00;102202.34;5014789;28;20060;-49
2022/09/20 07:58:01;;;;;;;10.50;2.42;;;;;;;11.90;100.00;102217.66;5032439;28;20062;-52
2022/09/20 08:00:29;;;;;;;9.57;2.00;;;;;;;11.96;100.00;102225.28;5032535;28;20049;-48
2022/09/20 08:02:59;;;;;;;10.43;2.30;;;;;;;12.01;100.00;102222.41;5031029;28;20045;-52
2022/09/20 08:05:27;;;;;;;10.45;2.35;;;;;;;12.03;100.00;102230.25;5032100;28;20530;-51
2022/09/20 08:07:55;;;;;;;7.80;1.92;;;;;;;12.13;100.00;102227.09;5032858;28;20041;-52
2022/09/20 08:10:25;;;;;;;6.95;2.00;;;;;;;12.18;100.00;102224.22;5032584;28;20061;-52
2022/09/20 08:12:53;;;;;;;7.90;1.90;;;;;;;12.38;100.00;102220.59;5032251;28;20053;-48
2022/09/20 08:15:42;;;;;;;9.48;2.25;;;;;;;12.76;100.00;102230.94;5031437;28;20057;-52
2022/09/20 08:18:13;;;;;;;9.70;2.58;;;;;;;12.77;100.00;102230.00;5030611;28;20459;-51
2022/09/20 08:20:41;;;;;;;10.50;3.47;;;;;;;12.74;100.00;102227.53;5032162;28;20064;-52
2022/09/20 08:23:09;;;;;;;6.95;2.60;;;;;;;12.85;100.00;102234.88;5032330;28;20045;-50
2022/09/20 08:25:52;;;;;;;9.27;2.78;;;;;;;13.34;100.00;102241.94;5032218;28;20447;-51
2022/09/20 08:28:20;;;;;;;7.60;2.95;;;;;;;13.38;100.00;102238.25;5031747;28;20077;-52
2022/09/20 08:30:48;;;;;;;8.60;2.92;;;;;;;13.47;100.00;102240.38;5032034;28;20045;-54
2022/09/20 08:33:16;;;;;;;8.32;2.38;;;;;;;13.63;100.00;102234.22;5030601;28;20435;-53
2022/09/20 08:35:48;;;;;;;9.43;2.50;;;;;;;13.67;100.00;102236.63;5032061;28;20115;-52
2022/09/20 08:38:16;;;;;;;7.72;2.45;;;;;;;13.71;100.00;102247.88;5031746;28;20071;-54
2022/09/20 08:41:10;;;;;;;8.05;2.28;;;;;;;13.56;100.00;102246.94;5031679;28;20132;-54
2022/09/20 08:43:43;;;;;;;7.63;1.88;;;;;;;14.00;100.00;102245.34;5013504;28;20449;-54
2022/09/20 08:46:16;;;;;;;12.98;3.17;;;;;;;14.24;100.00;102258.13;5031196;28;20100;-51
2022/09/20 08:48:50;;;;;;;11.23;3.63;;;;;;;14.52;100.00;102246.78;5031579;28;20045;-55
2022/09/20 08:51:20;;;;;;;8.15;2.10;;;;;;;14.74;100.00;102250.78;5031643;28;20049;-54
2022/09/20 08:53:53;;;;;;;8.85;2.28;;;;;;;15.01;100.00;102246.47;5031642;28;20049;-57
2022/09/20 08:56:22;;;;;;;7.57;1.60;;;;;;;15.28;100.00;102247.47;5031121;28;20049;-55
2022/09/20 08:58:52;;;;;;;7.18;1.63;;;;;;;15.43;100.00;102254.44;5031588;28;20056;-55
2022/09/20 09:01:23;;;;;;;6.93;1.40;;;;;;;15.24;100.00;102249.44;5029354;28;20122;-55
2022/09/20 09:03:51;;;;;;;8.30;1.35;;;;;;;15.27;100.00;102251.06;5031600;28;20488;-55
2022/09/20 09:06:23;;;;;;;5.30;0.95;;;;;;;15.20;100.00;102253.25;5031062;28;20037;-56
2022/09/20 09:08:52;;;;;;;5.32;1.10;;;;;;;15.12;100.00;102252.88;5031437;28;20115;-56
2022/09/20 09:11:22;;;;;;;8.00;1.40;;;;;;;15.18;100.00;102255.16;5030336;28;20511;-56
2022/09/20 09:13:55;;;;;;;4.53;1.00;;;;;;;15.17;100.00;102261.41;5030925;28;20550;-56
2022/09/20 09:16:25;;;;;;;3.20;0.93;;;;;;;14.80;100.00;102259.19;5029063;28;20163;-56
2022/09/20 09:19:27;;;;;;;5.90;1.38;;;;;;;14.72;100.00;102250.88;5030727;28;20046;-54
2022/09/20 09:22:02;;;;;;;4.95;1.20;;;;;;;14.66;100.00;102260.03;5030974;28;20103;-55
2022/09/20 09:24:31;;;;;;;4.40;1.20;;;;;;;14.77;100.00;102263.84;5030881;28;20053;-53
2022/09/20 09:27:13;;;;;;;5.35;1.20;;;;;;;14.82;100.00;102265.28;5030352;28;20053;-54
2022/09/20 09:29:49;;;;;;;7.78;1.40;;;;;;;14.71;100.00;102259.75;5030922;28;20049;-53
2022/09/20 09:32:23;;;;;;;5.80;1.23;;;;;;;14.72;100.00;102263.28;5029066;28;20164;-54
2022/09/20 09:34:51;;;;;;;3.50;1.20;;;;;;;14.83;100.00;102264.34;5030534;28;20053;-52
2022/09/20 09:37:29;;;;;;;6.15;1.20;;;;;;;14.88;100.00;102259.59;5030700;28;20037;-53
2022/09/20 09:40:15;;;;;;;6.13;1.10;;;;;;;14.91;100.00;102263.00;5031066;28;20053;-54
2022/09/20 09:42:51;;;;;;;6.88;1.00;;;;;;;14.70;99.48;102256.25;5030014;28;20052;-55
2022/09/20 09:45:30;;;;;;;5.50;1.10;;;;;;;14.74;100.00;102256.06;5030219;28;20042;-56
2022/09/20 09:48:01;;;;;;;6.97;1.20;;;;;;;14.80;98.99;102250.41;5029409;28;20049;-54
2022/09/20 09:50:33;;;;;;;7.50;1.20;;;;;;;14.92;100.00;102244.38;5030260;28;20107;-54
2022/09/20 09:53:09;;;;;;;9.17;1.20;;;;;;;15.20;99.99;102248.81;5030686;28;20107;-54
2022/09/20 09:56:13;;;;;;;4.82;0.90;;;;;;;15.31;97.01;102250.78;5030160;28;20502;-54
2022/09/20 09:58:58;;;;;;;8.57;1.38;;;;;;;15.30;94.41;102249.09;4999040;28;20053;-54
2022/09/20 10:01:38;;;;;;;11.13;1.83;;;;;;;15.56;94.69;102254.53;5028548;28;20128;-53
2022/09/20 10:04:15;;;;;;;4.30;0.80;;;;;;;15.53;90.75;102255.56;5029997;28;20471;-54
2022/09/20 10:06:53;;;;;;;6.63;1.00;;;;;;;15.82;90.03;102252.03;5029597;28;20053;-54
2022/09/20 10:09:37;;;;;;;12.55;1.65;;;;;;;15.99;92.73;102250.91;5029985;28;20589;-54
2022/09/20 10:12:19;;;;;;;9.75;1.70;;;;;;;15.89;88.82;102261.28;5028686;28;20385;-56
2022/09/20 10:15:09;;;;;;;5.35;1.13;;;;;;;16.07;85.60;102255.72;5029798;28;20428;-57
2022/09/20 10:17:55;;;;;;;5.85;1.10;;;;;;;16.24;88.00;102242.19;5028455;28;20071;-57
2022/09/20 10:20:36;;;;;;;10.80;1.42;;;;;;;16.81;87.49;102248.06;5029617;28;20072;-53
2022/09/20 10:23:17;;;;;;;7.38;1.20;;;;;;;17.35;83.36;102242.47;5029753;28;20562;-54
2022/09/20 10:26:16;;;;;;;13.73;2.08;;;;;;;17.65;82.25;102237.72;5011882;28;20787;-54
2022/09/20 10:28:58;;;;;;;5.05;1.00;;;;;;;17.80;79.49;102241.06;5030305;28;20060;-55
2022/09/20 10:31:47;;;;;;;5.72;1.15;;;;;;;17.90;75.78;102240.28;5028238;28;20049;-55
2022/09/20 10:34:41;;;;;;;4.85;1.13;;;;;;;18.24;79.78;102232.44;5012670;28;20057;-55
2022/09/20 10:37:19;;;;;;;5.72;0.93;;;;;;;18.24;77.81;102236.91;5030099;28;20500;-54
2022/09/20 10:39:57;;;;;;;4.18;0.95;;;;;;;18.18;76.41;102240.88;5029979;28;20050;-55
2022/09/20 10:45:33;;;;;;;3.60;0.75;;;;;;;18.39;73.25;102226.91;5030062;28;20133;-57
2022/09/20 10:48:31;;;;;;;3.42;0.88;;;;;;;18.08;72.47;102232.75;5028100;28;20049;-57
2022/09/20 10:51:06;;;;;;;7.05;0.95;;;;;;;18.13;71.10;102227.06;5030237;28;20053;-57
2022/09/20 10:53:42;;;;;;;6.43;0.90;;;;;;;17.93;72.86;102230.38;5030036;28;20504;-58
2022/09/20 10:56:23;;;;;;;3.90;0.93;;;;;;;18.21;67.05;102227.31;5029797;28;20377;-58
2022/09/20 10:59:16;;;;;;;4.35;0.80;;;;;;;18.47;69.11;102224.47;5029944;28;20400;-58
2022/09/20 11:01:58;;;;;;;4.90;0.82;;;;;;;18.49;70.31;102232.38;5028618;28;20068;-58
2022/09/20 11:04:48;;;;;;;9.00;1.20;;;;;;;18.50;64.67;102226.94;5029918;28;20052;-58
2022/09/20 11:07:19;;;;;;;4.80;0.80;;;;;;;18.19;62.33;102239.91;5030513;28;20493;-58
2022/09/20 11:09:51;;;;;;;6.80;1.05;;;;;;;18.12;61.54;102240.50;5012389;28;20057;-58
2022/09/20 11:12:26;;;;;;;4.38;0.77;;;;;;;17.96;59.42;102244.31;5029362;28;20053;-58
2022/09/20 11:14:58;;;;;;;5.40;1.10;;;;;;;17.93;60.33;102252.53;5029903;28;20115;-58
2022/09/20 11:17:32;;;;;;;3.60;0.70;;;;;;;17.86;59.00;102252.09;5028408;28;20550;-58
2022/09/20 11:20:08;;;;;;;4.40;0.80;;;;;;;17.86;61.64;102251.22;5029850;28;20455;-59
2022/09/20 11:22:42;;;;;;;5.35;1.20;;;;;;;17.72;61.53;102250.47;5030126;28;20060;-58
2022/09/20 11:25:18;;;;;;;4.85;1.27;;;;;;;17.73;62.92;102246.81;5033629;28;20045;-58
2022/09/20 11:27:55;;;;;;;7.53;1.15;;;;;;;17.85;63.25;102249.56;5033076;28;20057;-58
2022/09/20 11:30:24;;;;;;;6.00;0.98;;;;;;;17.98;64.40;102249.50;5033546;28;20115;-58
2022/09/20 11:32:56;;;;;;;9.70;1.40;;;;;;;18.08;63.60;102250.53;5031694;28;20044;-58
2022/09/20 11:35:33;;;;;;;8.00;1.10;;;;;;;18.23;61.62;102253.88;5032901;28;20519;-58
2022/09/20 11:38:10;;;;;;;5.90;1.15;;;;;;;18.23;61.02;102243.22;5033107;28;20049;-58
2022/09/20 11:40:43;;;;;;;4.25;0.80;;;;;;;17.97;62.16;102258.47;5033446;28;20409;-58
2022/09/20 11:43:14;;;;;;;5.70;1.05;;;;;;;17.99;63.52;102251.22;5032884;28;20053;-58
2022/09/20 11:45:44;;;;;;;6.47;1.38;;;;;;;18.33;65.74;102259.34;5033093;28;20566;-58
2022/09/20 11:48:19;;;;;;;5.25;1.02;;;;;;;18.35;63.02;102252.94;5031609;28;20104;-58
2022/09/20 11:51:16;;;;;;;3.92;0.90;;;;;;;18.26;62.67;102256.28;5033256;28;20107;-58
2022/09/20 11:54:15;;;;;;;4.97;0.90;;;;;;;18.06;66.12;102252.44;5015429;28;20061;-58
2022/09/20 11:56:51;;;;;;;6.93;1.30;;;;;;;18.31;67.99;102254.13;5014741;28;20037;-58
2022/09/20 11:59:29;;;;;;;7.18;1.33;;;;;;;18.94;64.13;102253.78;5032089;28;20095;-58
2022/09/20 12:02:00;;;;;;;6.43;0.98;;;;;;;19.67;60.82;102253.31;5030707;28;20049;-58
2022/09/20 12:04:31;;;;;;;7.60;1.30;;;;;;;20.17;59.33;102245.63;5032098;28;20049;-57
2022/09/20 12:07:06;;;;;;;4.70;1.00;;;;;;;20.60;58.10;102250.00;5032604;28;20124;-59
2022/09/20 12:09:43;;;;;;;6.32;1.20;;;;;;;20.63;59.45;102238.19;5032691;28;20434;-60
2022/09/20 12:12:23;;;;;;;7.38;1.50;;;;;;;20.09;56.96;102242.75;5032134;28;20140;-57
2022/09/20 12:14:56;;;;;;;7.22;1.70;;;;;;;19.91;57.70;102237.97;5032466;28;20415;-57
2022/09/20 12:18:09;;;;;;;4.95;1.25;;;;;;;19.65;55.24;102245.44;5030340;28;20042;-57
2022/09/20 12:20:55;;;;;;;;;;;;;;;19.39;55.46;102243.06;4986569;28;20065;-57
2022/09/20 12:23:44;;;;;;;5.10;0.88;;;;;;;19.18;58.32;102240.31;5032031;28;20395;-56
2022/09/20 12:26:37;;;;;;;6.43;1.20;;;;;;;19.09;55.91;102241.06;5031473;28;20530;-56